LEAS 231130Z 00000KT 9000 FEW012 SCT018 20/18 Q1019 NOSIG